JAL401 RJAA-EGLL
Flight info
| Callsign | JAL401 |
|---|---|
| Flight time | N/A |
| Altitude | 29000 |
| Route | GULBO Y808 PUTER/N0505F300 A590 PUGAL/N0510F310 A590 PASRO DCT 4831N16111E DCT NATES R338 MARCC/N0498F330 DCT JUJXI DCT OMEKA DCT 81N120W/N0501F350 82N100W 82N080W 82N060W/M086F350 80N040W 74N020W 65N010W/M086F370 DCT MATIK/N0498F370 DCT BESGA DCT ELBUS UL612 LAKEY DCT NUGRA |
| Aircraft | B77W/H-SDE1E2E3FGHIJ2J3J4J5M1RWXY/LB1D1 |
Departure
| Time | 2026-05-04 13:48 |
|---|---|
| Airport | Narita International Airport (RJAA) |
Arrival
| Time | N/A |
|---|---|
| Airport | London Heathrow Airport (EGLL) |
| Time | Latitude | Longitude | Altitude | Speed | Heading |
|---|---|---|---|---|---|
| 2026-05-04 12:45 | 35.77188 | 140.39100 | 148 ft | 0 kts | 239° |
| 2026-05-04 13:29 | 35.77194 | 140.39113 | 148 ft | 2 kts | 239° |
| 2026-05-04 13:30 | 35.77202 | 140.39130 | 148 ft | 2 kts | 239° |
| 2026-05-04 13:30 | 35.77211 | 140.39147 | 148 ft | 2 kts | 228° |
| 2026-05-04 13:30 | 35.77223 | 140.39159 | 148 ft | 2 kts | 200° |
| 2026-05-04 13:30 | 35.77239 | 140.39163 | 148 ft | 2 kts | 173° |
| 2026-05-04 13:31 | 35.77250 | 140.39160 | 148 ft | 1 kts | 158° |
| 2026-05-04 13:31 | 35.77251 | 140.39159 | 148 ft | 0 kts | 158° |
| 2026-05-04 13:31 | 35.77252 | 140.39159 | 148 ft | 0 kts | 158° |
| 2026-05-04 13:31 | 35.77262 | 140.39154 | 148 ft | 2 kts | 158° |
| 2026-05-04 13:32 | 35.77279 | 140.39145 | 148 ft | 3 kts | 158° |
| 2026-05-04 13:32 | 35.77287 | 140.39141 | 148 ft | 0 kts | 158° |
| 2026-05-04 13:35 | 35.77274 | 140.39148 | 148 ft | 7 kts | 153° |
| 2026-05-04 13:35 | 35.77221 | 140.39190 | 148 ft | 11 kts | 146° |
| 2026-05-04 13:36 | 35.77147 | 140.39248 | 148 ft | 17 kts | 148° |
| 2026-05-04 13:36 | 35.77054 | 140.39316 | 148 ft | 14 kts | 149° |
| 2026-05-04 13:36 | 35.76964 | 140.39381 | 148 ft | 7 kts | 149° |
| 2026-05-04 13:36 | 35.76905 | 140.39423 | 148 ft | 11 kts | 149° |
| 2026-05-04 13:37 | 35.76898 | 140.39429 | 148 ft | 0 kts | 149° |
| 2026-05-04 13:37 | 35.76879 | 140.39453 | 148 ft | 7 kts | 118° |
| 2026-05-04 13:37 | 35.76879 | 140.39510 | 148 ft | 7 kts | 70° |
| 2026-05-04 13:37 | 35.76906 | 140.39584 | 148 ft | 10 kts | 70° |
| 2026-05-04 13:38 | 35.76912 | 140.39665 | 148 ft | 9 kts | 99° |
| 2026-05-04 13:38 | 35.76890 | 140.39738 | 148 ft | 9 kts | 114° |
| 2026-05-04 13:38 | 35.76858 | 140.39824 | 148 ft | 14 kts | 120° |
| 2026-05-04 13:38 | 35.76781 | 140.39880 | 148 ft | 13 kts | 182° |
| 2026-05-04 13:39 | 35.76703 | 140.39830 | 148 ft | 13 kts | 221° |
| 2026-05-04 13:39 | 35.76620 | 140.39752 | 148 ft | 17 kts | 210° |
| 2026-05-04 13:39 | 35.76516 | 140.39690 | 148 ft | 16 kts | 204° |
| 2026-05-04 13:39 | 35.76420 | 140.39637 | 148 ft | 20 kts | 204° |
| 2026-05-04 13:40 | 35.76265 | 140.39551 | 148 ft | 28 kts | 204° |
| 2026-05-04 13:40 | 35.76064 | 140.39440 | 148 ft | 34 kts | 204° |
| 2026-05-04 13:40 | 35.75879 | 140.39338 | 148 ft | 24 kts | 204° |
| 2026-05-04 13:40 | 35.75780 | 140.39272 | 148 ft | 15 kts | 223° |
| 2026-05-04 13:41 | 35.75721 | 140.39174 | 148 ft | 14 kts | 236° |
| 2026-05-04 13:41 | 35.75654 | 140.39097 | 148 ft | 13 kts | 211° |
| 2026-05-04 13:41 | 35.75570 | 140.39047 | 148 ft | 16 kts | 205° |
| 2026-05-04 13:42 | 35.75238 | 140.38863 | 148 ft | 28 kts | 204° |
| 2026-05-04 13:42 | 35.75119 | 140.38802 | 148 ft | 15 kts | 190° |
| 2026-05-04 13:42 | 35.75025 | 140.38829 | 148 ft | 14 kts | 153° |
| 2026-05-04 13:42 | 35.74953 | 140.38881 | 148 ft | 13 kts | 149° |
| 2026-05-04 13:43 | 35.74852 | 140.38954 | 148 ft | 23 kts | 149° |
| 2026-05-04 13:43 | 35.74677 | 140.39080 | 148 ft | 34 kts | 149° |
| 2026-05-04 13:43 | 35.74487 | 140.39217 | 148 ft | 10 kts | 154° |
| 2026-05-04 13:43 | 35.74448 | 140.39221 | 148 ft | 5 kts | 195° |
| 2026-05-04 13:44 | 35.74427 | 140.39210 | 148 ft | 0 kts | 212° |
| 2026-05-04 13:45 | 35.74427 | 140.39209 | 148 ft | 0 kts | 212° |
| 2026-05-04 13:46 | 35.74410 | 140.39189 | 148 ft | 7 kts | 229° |
| 2026-05-04 13:46 | 35.74381 | 140.39135 | 148 ft | 10 kts | 243° |
| 2026-05-04 13:46 | 35.74381 | 140.39049 | 148 ft | 10 kts | 301° |
| 2026-05-04 13:46 | 35.74424 | 140.39006 | 148 ft | 8 kts | 330° |
| 2026-05-04 13:47 | 35.74470 | 140.38974 | 148 ft | 12 kts | 329° |
| 2026-05-04 13:47 | 35.74745 | 140.38775 | 148 ft | 85 kts | 329° |
| 2026-05-04 13:47 | 35.75478 | 140.38246 | 149 ft | 158 kts | 330° |
| 2026-05-04 13:47 | 35.76599 | 140.37432 | 184 ft | 210 kts | 329° |
| 2026-05-04 13:48 | 35.77864 | 140.36494 | 979 ft | 211 kts | 329° |
| 2026-05-04 13:48 | 35.79147 | 140.35565 | 1900 ft | 217 kts | 330° |
| 2026-05-04 13:48 | 35.80465 | 140.34619 | 2667 ft | 224 kts | 331° |
| 2026-05-04 13:48 | 35.81822 | 140.33644 | 3294 ft | 226 kts | 330° |
| 2026-05-04 13:49 | 35.83186 | 140.32665 | 3965 ft | 227 kts | 328° |
| 2026-05-04 13:49 | 35.84548 | 140.31681 | 4717 ft | 226 kts | 328° |
| 2026-05-04 13:49 | 35.85898 | 140.30699 | 5494 ft | 221 kts | 327° |
| 2026-05-04 13:49 | 35.87219 | 140.29747 | 6217 ft | 221 kts | 327° |
| 2026-05-04 13:50 | 35.88580 | 140.28758 | 6521 ft | 238 kts | 327° |
| 2026-05-04 13:50 | 35.90064 | 140.27677 | 6818 ft | 253 kts | 327° |
| 2026-05-04 13:50 | 35.91635 | 140.26542 | 7009 ft | 272 kts | 327° |
| 2026-05-04 13:50 | 35.93252 | 140.25370 | 6980 ft | 268 kts | 327° |
| 2026-05-04 13:51 | 35.94806 | 140.24216 | 7053 ft | 253 kts | 327° |
| 2026-05-04 13:51 | 35.96303 | 140.23145 | 7018 ft | 243 kts | 329° |
| 2026-05-04 13:51 | 35.97901 | 140.22555 | 6980 ft | 243 kts | 352° |
| 2026-05-04 13:51 | 35.99570 | 140.22981 | 7038 ft | 253 kts | 13° |
| 2026-05-04 13:52 | 36.02123 | 140.26375 | 7034 ft | 302 kts | 62° |
| 2026-05-04 13:52 | 36.02412 | 140.29003 | 7043 ft | 313 kts | 88° |
| 2026-05-04 13:52 | 36.01859 | 140.31564 | 7324 ft | 311 kts | 108° |
| 2026-05-04 13:53 | 36.00920 | 140.34028 | 7659 ft | 319 kts | 112° |
| 2026-05-04 13:53 | 35.99965 | 140.36554 | 8029 ft | 332 kts | 112° |
| 2026-05-04 13:53 | 35.98991 | 140.39179 | 8311 ft | 338 kts | 113° |
| 2026-05-04 13:54 | 35.97058 | 140.44476 | 8815 ft | 341 kts | 113° |
| 2026-05-04 13:54 | 35.95945 | 140.47074 | 9359 ft | 340 kts | 122° |
| 2026-05-04 13:54 | 35.93080 | 140.51513 | 10992 ft | 330 kts | 135° |
| 2026-05-04 13:55 | 35.91526 | 140.53629 | 11461 ft | 337 kts | 137° |
| 2026-05-04 13:55 | 35.88169 | 140.58048 | 12038 ft | 365 kts | 139° |
| 2026-05-04 13:55 | 35.86407 | 140.60334 | 12315 ft | 379 kts | 140° |
| 2026-05-04 13:56 | 35.84558 | 140.62729 | 12577 ft | 393 kts | 140° |
| 2026-05-04 13:56 | 35.82646 | 140.65198 | 13049 ft | 399 kts | 140° |
| 2026-05-04 13:56 | 35.78766 | 140.70192 | 14010 ft | 407 kts | 141° |
| 2026-05-04 13:57 | 35.76809 | 140.72718 | 14132 ft | 411 kts | 142° |
| 2026-05-04 13:57 | 35.74819 | 140.75281 | 14660 ft | 415 kts | 142° |
| 2026-05-04 13:58 | 35.68781 | 140.83137 | 16226 ft | 429 kts | 141° |
| 2026-05-04 13:58 | 35.64780 | 140.88708 | 17180 ft | 438 kts | 141° |
| 2026-05-04 13:58 | 35.62740 | 140.91513 | 17626 ft | 441 kts | 142° |
| 2026-05-04 13:59 | 35.60697 | 140.94295 | 18058 ft | 445 kts | 143° |
| 2026-05-04 13:59 | 35.58614 | 140.97123 | 18498 ft | 448 kts | 143° |
| 2026-05-04 13:59 | 35.54383 | 141.02861 | 19351 ft | 454 kts | 143° |
| 2026-05-04 14:00 | 35.52519 | 141.05417 | 19748 ft | 457 kts | 141° |
| 2026-05-04 14:00 | 35.49270 | 141.12504 | 20584 ft | 493 kts | 117° |
| 2026-05-04 14:00 | 35.48431 | 141.16649 | 20949 ft | 508 kts | 108° |
| 2026-05-04 14:01 | 35.48013 | 141.20975 | 21206 ft | 520 kts | 101° |
| 2026-05-04 14:01 | 35.47802 | 141.25423 | 21516 ft | 526 kts | 99° |
| 2026-05-04 14:01 | 35.47334 | 141.34391 | 22211 ft | 529 kts | 101° |
| 2026-05-04 14:02 | 35.47027 | 141.38961 | 22512 ft | 533 kts | 102° |
| 2026-05-04 14:02 | 35.46707 | 141.43462 | 22829 ft | 535 kts | 102° |
| 2026-05-04 14:02 | 35.46357 | 141.48005 | 23092 ft | 538 kts | 103° |
| 2026-05-04 14:02 | 35.45995 | 141.52608 | 23419 ft | 540 kts | 103° |
| 2026-05-04 14:03 | 35.45634 | 141.57179 | 23715 ft | 543 kts | 103° |
| 2026-05-04 14:03 | 35.45300 | 141.61403 | 23970 ft | 545 kts | 103° |
| 2026-05-04 14:03 | 35.44933 | 141.66031 | 24265 ft | 547 kts | 103° |
| 2026-05-04 14:03 | 35.44690 | 141.69116 | 24463 ft | 549 kts | 102° |
| 2026-05-04 14:04 | 35.45462 | 141.80174 | 24950 ft | 576 kts | 75° |
| 2026-05-04 14:04 | 35.47136 | 141.84692 | 25243 ft | 580 kts | 60° |
| 2026-05-04 14:04 | 35.49519 | 141.88682 | 25491 ft | 579 kts | 49° |
| 2026-05-04 14:05 | 35.54490 | 141.96487 | 25874 ft | 586 kts | 53° |
| 2026-05-04 14:05 | 35.56052 | 141.99216 | 26027 ft | 588 kts | 54° |
| 2026-05-04 14:05 | 35.58320 | 142.03284 | 26333 ft | 589 kts | 55° |
| 2026-05-04 14:06 | 35.60593 | 142.07464 | 26582 ft | 591 kts | 56° |
| 2026-05-04 14:06 | 35.62868 | 142.11679 | 26817 ft | 593 kts | 56° |
| 2026-05-04 14:06 | 35.65157 | 142.15922 | 27071 ft | 595 kts | 56° |
| 2026-05-04 14:06 | 35.67461 | 142.20190 | 27315 ft | 597 kts | 56° |
| 2026-05-04 14:07 | 35.69763 | 142.24458 | 27522 ft | 599 kts | 56° |
| 2026-05-04 14:07 | 35.72070 | 142.28738 | 27779 ft | 601 kts | 56° |
| 2026-05-04 14:07 | 35.74186 | 142.32669 | 27983 ft | 602 kts | 56° |
| 2026-05-04 14:07 | 35.76459 | 142.36897 | 28179 ft | 604 kts | 56° |
| 2026-05-04 14:08 | 35.78777 | 142.41212 | 28457 ft | 604 kts | 56° |
| 2026-05-04 14:08 | 35.81105 | 142.45551 | 28712 ft | 605 kts | 56° |
| 2026-05-04 14:08 | 35.83425 | 142.49879 | 28771 ft | 604 kts | 57° |
| 2026-05-04 14:09 | 35.90175 | 142.62510 | 29234 ft | 605 kts | 57° |
| 2026-05-04 14:09 | 35.92379 | 142.66643 | 29555 ft | 603 kts | 57° |
| 2026-05-04 14:10 | 35.93404 | 142.68565 | 29703 ft | 603 kts | 57° |
| 2026-05-04 14:10 | 35.95495 | 142.72496 | 30013 ft | 601 kts | 57° |
| 2026-05-04 14:11 | 35.97780 | 142.76794 | 30360 ft | 600 kts | 57° |
| 2026-05-04 14:11 | 36.02466 | 142.85296 | 30791 ft | 600 kts | 52° |
| 2026-05-04 14:11 | 36.05106 | 142.89298 | 30750 ft | 603 kts | 47° |
| 2026-05-04 14:12 | 36.11046 | 142.96654 | 30754 ft | 604 kts | 41° |
| 2026-05-04 14:13 | 36.20403 | 143.07083 | 30750 ft | 603 kts | 39° |
| 2026-05-04 14:13 | 36.26700 | 143.13989 | 30773 ft | 609 kts | 39° |
| 2026-05-04 14:14 | 36.33067 | 143.20995 | 30737 ft | 615 kts | 39° |
| 2026-05-04 14:14 | 36.36224 | 143.24475 | 30736 ft | 617 kts | 39° |
| 2026-05-04 14:15 | 36.46672 | 143.36022 | 30736 ft | 623 kts | 39° |
| 2026-05-04 14:16 | 36.56399 | 143.46812 | 30735 ft | 626 kts | 39° |
| 2026-05-04 14:17 | 36.66050 | 143.57556 | 30734 ft | 628 kts | 39° |
| 2026-05-04 14:18 | 36.75695 | 143.68331 | 30731 ft | 628 kts | 39° |
| 2026-05-04 14:19 | 36.88697 | 143.82916 | 30728 ft | 629 kts | 39° |
| 2026-05-04 14:19 | 36.94994 | 143.90006 | 30727 ft | 630 kts | 39° |
| 2026-05-04 14:20 | 37.01512 | 143.97360 | 30725 ft | 631 kts | 39° |
| 2026-05-04 14:20 | 37.08034 | 144.04737 | 30724 ft | 630 kts | 40° |
| 2026-05-04 14:21 | 37.17731 | 144.15739 | 30729 ft | 628 kts | 40° |
| 2026-05-04 14:21 | 37.24204 | 144.23105 | 30792 ft | 629 kts | 40° |
| 2026-05-04 14:22 | 37.30692 | 144.30507 | 30819 ft | 630 kts | 40° |
| 2026-05-04 14:22 | 37.37199 | 144.37947 | 30829 ft | 631 kts | 40° |
| 2026-05-04 14:23 | 37.46924 | 144.49102 | 30829 ft | 631 kts | 40° |
| 2026-05-04 14:24 | 37.53217 | 144.56348 | 30840 ft | 630 kts | 40° |
| 2026-05-04 14:24 | 37.59620 | 144.63723 | 30838 ft | 629 kts | 40° |
| 2026-05-04 14:25 | 37.66083 | 144.71198 | 30828 ft | 631 kts | 40° |
| 2026-05-04 14:25 | 37.75803 | 144.82472 | 30827 ft | 631 kts | 40° |
| 2026-05-04 14:26 | 37.82248 | 144.89986 | 30768 ft | 626 kts | 40° |
| 2026-05-04 14:26 | 37.88623 | 144.97391 | 30836 ft | 624 kts | 40° |
| 2026-05-04 14:27 | 37.95028 | 145.04862 | 30829 ft | 626 kts | 41° |
| 2026-05-04 14:27 | 38.01430 | 145.12366 | 30808 ft | 628 kts | 41° |
| 2026-05-04 14:28 | 38.07864 | 145.19946 | 30826 ft | 631 kts | 41° |
| 2026-05-04 14:28 | 38.14297 | 145.27530 | 30812 ft | 634 kts | 41° |
| 2026-05-04 14:29 | 38.27214 | 145.42804 | 30692 ft | 635 kts | 41° |
| 2026-05-04 14:30 | 38.33680 | 145.50479 | 30690 ft | 635 kts | 41° |
| 2026-05-04 14:31 | 38.43366 | 145.62013 | 30690 ft | 635 kts | 41° |
| 2026-05-04 14:32 | 38.55943 | 145.77055 | 30689 ft | 635 kts | 41° |
| 2026-05-04 14:32 | 38.62391 | 145.84796 | 30663 ft | 636 kts | 41° |
| 2026-05-04 14:33 | 38.68839 | 145.92557 | 30659 ft | 637 kts | 41° |
| 2026-05-04 14:33 | 38.75087 | 146.00098 | 30655 ft | 638 kts | 41° |
| 2026-05-04 14:34 | 38.81524 | 146.07886 | 30652 ft | 636 kts | 41° |
| 2026-05-04 14:34 | 38.87965 | 146.15699 | 30647 ft | 636 kts | 41° |
| 2026-05-04 14:35 | 38.94398 | 146.23522 | 30644 ft | 637 kts | 41° |
| 2026-05-04 14:35 | 39.00789 | 146.31315 | 30640 ft | 638 kts | 41° |
| 2026-05-04 14:36 | 39.07244 | 146.39206 | 30636 ft | 640 kts | 42° |
| 2026-05-04 14:36 | 39.13695 | 146.47115 | 30632 ft | 640 kts | 42° |
| 2026-05-04 14:37 | 39.20154 | 146.55054 | 30629 ft | 641 kts | 42° |
| 2026-05-04 14:37 | 39.26570 | 146.62961 | 30625 ft | 641 kts | 42° |
| 2026-05-04 14:38 | 39.32639 | 146.70460 | 30622 ft | 642 kts | 42° |
| 2026-05-04 14:38 | 39.39168 | 146.78549 | 30617 ft | 641 kts | 42° |
| 2026-05-04 14:39 | 39.45604 | 146.86543 | 30616 ft | 640 kts | 42° |
| 2026-05-04 14:39 | 39.52023 | 146.94539 | 30611 ft | 641 kts | 42° |
| 2026-05-04 14:40 | 39.61649 | 147.06570 | 30555 ft | 640 kts | 42° |
| 2026-05-04 14:40 | 39.68029 | 147.14571 | 30532 ft | 639 kts | 42° |
| 2026-05-04 14:41 | 39.74420 | 147.22607 | 30532 ft | 639 kts | 43° |
| 2026-05-04 14:42 | 39.87169 | 147.38705 | 30531 ft | 638 kts | 43° |
| 2026-05-04 14:42 | 39.93533 | 147.46772 | 30529 ft | 638 kts | 43° |
| 2026-05-04 14:43 | 39.99841 | 147.54791 | 30529 ft | 637 kts | 43° |
| 2026-05-04 14:43 | 40.05904 | 147.62520 | 30529 ft | 639 kts | 43° |
| 2026-05-04 14:44 | 40.12260 | 147.70643 | 30528 ft | 639 kts | 43° |
| 2026-05-04 14:44 | 40.18618 | 147.78792 | 30528 ft | 639 kts | 43° |
| 2026-05-04 14:45 | 40.24913 | 147.86882 | 30526 ft | 638 kts | 43° |
| 2026-05-04 14:45 | 40.31232 | 147.95025 | 30527 ft | 638 kts | 43° |
| 2026-05-04 14:46 | 40.37576 | 148.03224 | 30526 ft | 639 kts | 43° |
| 2026-05-04 14:46 | 40.43890 | 148.11407 | 30526 ft | 637 kts | 43° |
| 2026-05-04 14:47 | 40.50204 | 148.19611 | 30525 ft | 638 kts | 43° |
| 2026-05-04 14:47 | 40.56523 | 148.27847 | 30526 ft | 638 kts | 43° |
| 2026-05-04 14:48 | 40.62815 | 148.36069 | 30525 ft | 638 kts | 43° |
| 2026-05-04 14:48 | 40.69118 | 148.44330 | 30526 ft | 639 kts | 44° |
| 2026-05-04 14:49 | 40.75381 | 148.52561 | 30525 ft | 639 kts | 44° |
| 2026-05-04 14:49 | 40.81680 | 148.60863 | 30526 ft | 639 kts | 44° |
| 2026-05-04 14:50 | 40.87947 | 148.69146 | 30525 ft | 639 kts | 44° |
| 2026-05-04 14:50 | 40.94238 | 148.77485 | 30527 ft | 640 kts | 44° |
| 2026-05-04 14:51 | 41.00237 | 148.85460 | 30546 ft | 640 kts | 44° |
| 2026-05-04 14:51 | 41.05457 | 148.92416 | 30547 ft | 640 kts | 44° |
| 2026-05-04 14:52 | 41.12746 | 149.02158 | 30548 ft | 640 kts | 44° |
| 2026-05-04 14:52 | 41.17995 | 149.09193 | 30547 ft | 640 kts | 44° |
| 2026-05-04 14:53 | 41.25278 | 149.18982 | 30548 ft | 640 kts | 44° |
| 2026-05-04 14:53 | 41.30474 | 149.25986 | 30548 ft | 640 kts | 44° |
| 2026-05-04 14:54 | 41.36725 | 149.34436 | 30548 ft | 640 kts | 44° |
| 2026-05-04 14:54 | 41.42950 | 149.42876 | 30549 ft | 640 kts | 44° |
| 2026-05-04 14:55 | 41.49154 | 149.51309 | 30549 ft | 639 kts | 44° |
| 2026-05-04 14:55 | 41.55403 | 149.59829 | 30549 ft | 639 kts | 44° |
| 2026-05-04 14:56 | 41.61599 | 149.68303 | 30551 ft | 639 kts | 44° |
| 2026-05-04 14:56 | 41.67808 | 149.76819 | 30550 ft | 639 kts | 44° |
| 2026-05-04 14:57 | 41.74016 | 149.85358 | 30552 ft | 640 kts | 44° |
| 2026-05-04 14:57 | 41.80221 | 149.93918 | 30552 ft | 640 kts | 44° |
| 2026-05-04 14:58 | 41.86410 | 150.02482 | 30554 ft | 640 kts | 44° |
| 2026-05-04 14:58 | 41.92607 | 150.11083 | 30554 ft | 641 kts | 44° |
| 2026-05-04 14:59 | 41.98759 | 150.19647 | 30555 ft | 640 kts | 44° |
| 2026-05-04 15:00 | 42.07766 | 150.32230 | 30557 ft | 641 kts | 44° |
| 2026-05-04 15:00 | 42.13899 | 150.40830 | 30557 ft | 640 kts | 45° |
| 2026-05-04 15:01 | 42.23170 | 150.53879 | 30558 ft | 640 kts | 45° |
| 2026-05-04 15:01 | 42.29298 | 150.62537 | 30561 ft | 639 kts | 45° |
| 2026-05-04 15:02 | 42.35440 | 150.71241 | 30561 ft | 638 kts | 45° |
| 2026-05-04 15:02 | 42.41534 | 150.79902 | 30562 ft | 638 kts | 45° |
| 2026-05-04 15:03 | 42.47659 | 150.88634 | 30565 ft | 638 kts | 45° |
| 2026-05-04 15:03 | 42.53758 | 150.97357 | 30565 ft | 638 kts | 45° |
| 2026-05-04 15:04 | 42.59869 | 151.06121 | 30566 ft | 637 kts | 45° |
| 2026-05-04 15:04 | 42.65944 | 151.14861 | 30569 ft | 637 kts | 45° |
| 2026-05-04 15:05 | 42.72021 | 151.23632 | 30569 ft | 636 kts | 45° |
| 2026-05-04 15:05 | 42.78094 | 151.32423 | 30571 ft | 636 kts | 45° |
| 2026-05-04 15:06 | 42.84152 | 151.41217 | 30572 ft | 639 kts | 45° |
| 2026-05-04 15:07 | 42.93275 | 151.54517 | 30574 ft | 644 kts | 46° |
| 2026-05-04 15:07 | 42.99400 | 151.63480 | 30577 ft | 646 kts | 46° |
| 2026-05-04 15:08 | 43.05238 | 151.72049 | 30569 ft | 647 kts | 46° |
| 2026-05-04 15:08 | 43.11350 | 151.81048 | 30487 ft | 648 kts | 46° |
| 2026-05-04 15:09 | 43.17481 | 151.90103 | 30479 ft | 648 kts | 46° |
| 2026-05-04 15:09 | 43.23619 | 151.99197 | 30481 ft | 649 kts | 46° |
| 2026-05-04 15:10 | 43.32789 | 152.12839 | 30520 ft | 646 kts | 46° |
| 2026-05-04 15:11 | 43.41933 | 152.26506 | 30538 ft | 648 kts | 46° |
| 2026-05-04 15:11 | 43.48021 | 152.35642 | 30539 ft | 648 kts | 46° |
| 2026-05-04 15:12 | 43.54081 | 152.44767 | 30541 ft | 648 kts | 46° |
| 2026-05-04 15:12 | 43.60159 | 152.53947 | 30542 ft | 648 kts | 46° |
| 2026-05-04 15:13 | 43.66232 | 152.63149 | 30545 ft | 647 kts | 46° |
| 2026-05-04 15:13 | 43.72277 | 152.72339 | 30547 ft | 646 kts | 47° |
| 2026-05-04 15:14 | 43.78319 | 152.81553 | 30548 ft | 645 kts | 47° |
| 2026-05-04 15:14 | 43.84324 | 152.90743 | 30550 ft | 644 kts | 46° |
| 2026-05-04 15:15 | 43.90304 | 152.99921 | 30552 ft | 643 kts | 47° |
| 2026-05-04 15:15 | 43.96276 | 153.09118 | 30555 ft | 642 kts | 47° |
| 2026-05-04 15:16 | 44.05245 | 153.22987 | 30558 ft | 643 kts | 47° |
| 2026-05-04 15:17 | 44.14195 | 153.36895 | 30561 ft | 643 kts | 47° |
| 2026-05-04 15:17 | 44.23116 | 153.50825 | 30564 ft | 641 kts | 47° |
| 2026-05-04 15:18 | 44.29035 | 153.60106 | 30575 ft | 640 kts | 47° |
| 2026-05-04 15:19 | 44.37847 | 153.73979 | 30635 ft | 640 kts | 47° |
| 2026-05-04 15:19 | 44.46637 | 153.87888 | 30639 ft | 640 kts | 47° |
| 2026-05-04 15:20 | 44.52441 | 153.97107 | 30640 ft | 640 kts | 47° |
| 2026-05-04 15:20 | 44.58379 | 154.06574 | 30643 ft | 639 kts | 47° |
| 2026-05-04 15:21 | 44.64229 | 154.15929 | 30652 ft | 637 kts | 47° |
| 2026-05-04 15:22 | 44.72957 | 154.29945 | 30657 ft | 637 kts | 47° |
| 2026-05-04 15:22 | 44.81702 | 154.44059 | 30660 ft | 637 kts | 47° |
| 2026-05-04 15:23 | 44.87530 | 154.53505 | 30663 ft | 637 kts | 47° |
| 2026-05-04 15:23 | 44.93298 | 154.62884 | 30665 ft | 637 kts | 47° |
| 2026-05-04 15:24 | 45.04637 | 154.81416 | 30668 ft | 637 kts | 47° |
| 2026-05-04 15:25 | 45.10419 | 154.90913 | 30671 ft | 636 kts | 47° |
| 2026-05-04 15:26 | 45.19051 | 155.05151 | 30674 ft | 635 kts | 47° |
| 2026-05-04 15:26 | 45.27674 | 155.19446 | 30677 ft | 635 kts | 47° |
| 2026-05-04 15:27 | 45.36257 | 155.33749 | 30680 ft | 634 kts | 47° |
| 2026-05-04 15:28 | 45.44797 | 155.48052 | 30684 ft | 633 kts | 47° |
| 2026-05-04 15:29 | 45.53337 | 155.62429 | 30688 ft | 632 kts | 47° |
| 2026-05-04 15:30 | 45.73128 | 155.96034 | 30695 ft | 631 kts | 47° |
| 2026-05-04 15:31 | 45.81533 | 156.10428 | 30698 ft | 630 kts | 47° |
| 2026-05-04 15:32 | 45.95574 | 156.34643 | 30704 ft | 630 kts | 47° |
| 2026-05-04 15:34 | 46.09494 | 156.58860 | 30709 ft | 629 kts | 47° |
| 2026-05-04 15:34 | 46.17833 | 156.73468 | 30713 ft | 627 kts | 47° |
| 2026-05-04 15:35 | 46.26126 | 156.88073 | 30716 ft | 626 kts | 47° |
| 2026-05-04 15:36 | 46.34348 | 157.02629 | 30718 ft | 625 kts | 47° |
| 2026-05-04 15:36 | 46.39834 | 157.12384 | 30722 ft | 625 kts | 47° |
| 2026-05-04 15:37 | 46.45306 | 157.22149 | 30724 ft | 624 kts | 47° |
| 2026-05-04 15:37 | 46.50766 | 157.31925 | 30726 ft | 623 kts | 47° |
| 2026-05-04 15:38 | 46.55335 | 157.40135 | 30728 ft | 622 kts | 47° |
| 2026-05-04 15:38 | 46.60765 | 157.49921 | 30730 ft | 622 kts | 47° |
| 2026-05-04 15:39 | 46.66148 | 157.59658 | 30731 ft | 621 kts | 47° |
| 2026-05-04 15:40 | 46.74257 | 157.74392 | 30745 ft | 620 kts | 47° |
| 2026-05-04 15:40 | 46.79658 | 157.84247 | 30748 ft | 620 kts | 47° |
| 2026-05-04 15:41 | 46.85020 | 157.94069 | 30750 ft | 620 kts | 47° |
| 2026-05-04 15:41 | 46.90391 | 158.03942 | 30752 ft | 620 kts | 47° |
| 2026-05-04 15:42 | 46.95714 | 158.13761 | 30753 ft | 616 kts | 47° |
| 2026-05-04 15:42 | 47.00777 | 158.23132 | 30756 ft | 615 kts | 47° |
| 2026-05-04 15:43 | 47.06024 | 158.32877 | 30757 ft | 615 kts | 47° |
| 2026-05-04 15:43 | 47.11300 | 158.42712 | 30758 ft | 616 kts | 47° |
| 2026-05-04 15:44 | 47.16620 | 158.52666 | 30797 ft | 614 kts | 47° |
| 2026-05-04 15:44 | 47.21842 | 158.62470 | 30810 ft | 614 kts | 47° |
| 2026-05-04 15:45 | 47.27104 | 158.72386 | 30812 ft | 614 kts | 47° |
| 2026-05-04 15:45 | 47.32356 | 158.82318 | 30813 ft | 613 kts | 47° |
| 2026-05-04 15:46 | 47.37594 | 158.92260 | 30814 ft | 614 kts | 47° |
| 2026-05-04 15:46 | 47.42659 | 159.01907 | 30817 ft | 613 kts | 47° |
| 2026-05-04 15:47 | 47.47986 | 159.12091 | 30818 ft | 612 kts | 47° |
| 2026-05-04 15:47 | 47.53157 | 159.22013 | 30819 ft | 611 kts | 47° |
| 2026-05-04 15:48 | 47.58188 | 159.31702 | 30821 ft | 610 kts | 47° |
| 2026-05-04 15:48 | 47.61120 | 159.37363 | 30821 ft | 609 kts | 47° |
| 2026-05-04 15:49 | 47.65121 | 159.45108 | 30823 ft | 610 kts | 47° |
| 2026-05-04 15:49 | 47.70269 | 159.55105 | 30824 ft | 609 kts | 47° |
| 2026-05-04 15:50 | 47.75507 | 159.65316 | 30826 ft | 608 kts | 47° |
| 2026-05-04 15:50 | 47.79894 | 159.73898 | 30826 ft | 608 kts | 47° |
| 2026-05-04 15:51 | 47.84896 | 159.83715 | 30828 ft | 607 kts | 47° |
| 2026-05-04 15:51 | 47.90011 | 159.93790 | 30830 ft | 606 kts | 47° |
| 2026-05-04 15:52 | 47.95073 | 160.03796 | 30831 ft | 606 kts | 47° |
| 2026-05-04 15:52 | 48.00011 | 160.13596 | 30832 ft | 607 kts | 47° |
| 2026-05-04 15:53 | 48.05126 | 160.23783 | 30833 ft | 607 kts | 47° |
| 2026-05-04 15:53 | 48.10173 | 160.33870 | 30835 ft | 607 kts | 47° |
| 2026-05-04 15:54 | 48.15225 | 160.44006 | 30836 ft | 607 kts | 48° |
| 2026-05-04 15:54 | 48.20262 | 160.54152 | 30837 ft | 607 kts | 48° |
| 2026-05-04 15:55 | 48.25444 | 160.64620 | 30838 ft | 607 kts | 48° |
| 2026-05-04 15:55 | 48.29339 | 160.72542 | 30836 ft | 607 kts | 48° |
| 2026-05-04 15:56 | 48.33710 | 160.81386 | 30837 ft | 606 kts | 47° |
| 2026-05-04 15:56 | 48.38791 | 160.91654 | 30840 ft | 607 kts | 48° |
| 2026-05-04 15:57 | 48.43551 | 161.01470 | 30839 ft | 607 kts | 47° |
| 2026-05-04 15:57 | 48.48521 | 161.11725 | 30846 ft | 606 kts | 47° |
| 2026-05-04 15:58 | 48.53660 | 161.20925 | 30838 ft | 599 kts | 39° |
| 2026-05-04 15:58 | 48.59643 | 161.29629 | 30852 ft | 594 kts | 34° |
| 2026-05-04 15:59 | 48.65801 | 161.37849 | 30844 ft | 589 kts | 33° |
| 2026-05-04 15:59 | 48.71913 | 161.46131 | 30842 ft | 590 kts | 34° |
| 2026-05-04 16:00 | 48.78001 | 161.54521 | 30857 ft | 591 kts | 34° |
| 2026-05-04 16:00 | 48.83814 | 161.62444 | 30843 ft | 592 kts | 34° |
| 2026-05-04 16:01 | 48.89876 | 161.70811 | 30842 ft | 592 kts | 34° |
| 2026-05-04 16:01 | 48.95957 | 161.79259 | 30866 ft | 592 kts | 34° |